Time;durP1;ratioP1;P1;durP2;ratioP2;P2;SDS_P1;SDS_P2;PMS_P1;PMS_P2;Temp;Humidity;BMP_temperature;BMP_pressure;BME280_temperature;BME280_humidity;BME280_pressure;Samples;Min_cycle;Max_cycle;Signal;HPM_P1;HPM_P2
2020/12/18 00:00:38;;;;;;;863.30;768.40;;;4.10;99.90;;;;;;10345898;28;87611;-73
2020/12/18 00:05:42;;;;;;;900.97;800.33;;;4.10;99.90;;;;;;10343289;28;88618;-73
2020/12/18 00:10:44;;;;;;;1075.23;812.83;;;4.20;99.90;;;;;;10345754;28;87720;-74
2020/12/18 00:15:46;;;;;;;908.93;808.47;;;4.20;99.90;;;;;;10344539;28;87835;-74
2020/12/18 00:20:50;;;;;;;1067.50;820.13;;;4.30;99.90;;;;;;10345233;28;87042;-74
2020/12/18 00:25:53;;;;;;;938.27;809.63;;;4.30;99.90;;;;;;10347135;28;87500;-74
2020/12/18 00:30:54;;;;;;;961.40;819.83;;;4.30;99.90;;;;;;10347518;28;87542;-74
2020/12/18 00:35:56;;;;;;;898.80;803.33;;;4.30;99.90;;;;;;10346763;28;88662;-74
2020/12/18 00:40:58;;;;;;;889.63;798.03;;;4.30;99.90;;;;;;10341279;28;88938;-73
2020/12/18 00:46:00;;;;;;;887.90;797.90;;;4.30;99.90;;;;;;10347021;28;87908;-73
2020/12/18 00:51:02;;;;;;;889.17;799.50;;;4.40;99.90;;;;;;10322616;28;89589;-74
2020/12/18 00:56:08;;;;;;;764.97;688.13;;;4.50;99.90;;;;;;10321376;28;88645;-74
2020/12/18 01:01:12;;;;;;;820.43;736.63;;;4.50;99.90;;;;;;10329497;28;91027;-74
2020/12/18 01:06:15;;;;;;;703.27;622.80;;;4.50;99.90;;;;;;10346218;28;87759;-73
2020/12/18 01:11:31;;;;;;;818.20;730.27;;;4.40;99.90;;;;;;10332057;28;87089;-74
2020/12/18 01:16:33;;;;;;;470.07;351.60;;;4.40;99.90;;;;;;10342702;28;87725;-75
2020/12/18 01:21:37;;;;;;;590.33;463.43;;;4.50;99.90;;;;;;10335263;28;89713;-74
2020/12/18 01:26:42;;;;;;;809.73;717.20;;;4.50;99.90;;;;;;10327330;28;89623;-73
2020/12/18 01:31:45;;;;;;;851.57;755.97;;;4.50;99.90;;;;;;10345270;28;87532;-73
2020/12/18 01:36:48;;;;;;;785.03;662.27;;;4.40;99.90;;;;;;10325841;28;89681;-74
2020/12/18 01:42:03;;;;;;;158.80;83.47;;;4.50;99.90;;;;;;10324709;28;90584;-74
2020/12/18 01:47:19;;;;;;;262.60;147.20;;;4.50;99.90;;;;;;10319434;28;89582;-75
2020/12/18 01:52:23;;;;;;;151.97;85.47;;;4.60;99.90;;;;;;10327531;28;88601;-74
2020/12/18 01:57:33;;;;;;;232.50;126.80;;;4.50;99.90;;;;;;10328333;28;88804;-74
2020/12/18 02:02:38;;;;;;;544.40;477.23;;;4.50;99.90;;;;;;10342336;28;86121;-74
2020/12/18 02:08:01;;;;;;;515.07;415.67;;;4.60;99.90;;;;;;10335387;28;89716;-74
2020/12/18 02:13:23;;;;;;;231.13;141.63;;;4.60;99.90;;;;;;10343913;28;87460;-74
2020/12/18 02:18:25;;;;;;;459.77;334.47;;;4.50;99.90;;;;;;10345347;28;88682;-74
2020/12/18 02:23:26;;;;;;;874.53;786.67;;;4.50;99.90;;;;;;10352107;28;87623;-73
2020/12/18 02:28:29;;;;;;;786.83;703.50;;;4.50;99.90;;;;;;10340198;28;87558;-73
2020/12/18 02:33:31;;;;;;;327.07;229.33;;;4.40;99.90;;;;;;10345849;28;87415;-74
2020/12/18 02:38:41;;;;;;;740.10;662.73;;;4.40;99.90;;;;;;10318892;28;89940;-74
2020/12/18 02:43:44;;;;;;;808.17;718.23;;;4.40;99.90;;;;;;10325037;28;89646;-73
2020/12/18 02:48:48;;;;;;;860.60;771.37;;;4.40;99.90;;;;;;10332885;28;90122;-73
2020/12/18 02:54:11;;;;;;;727.80;651.97;;;4.30;99.90;;;;;;10346111;28;87237;-74
2020/12/18 02:59:28;;;;;;;746.37;637.63;;;4.30;99.90;;;;;;10325970;28;89875;-74
2020/12/18 03:04:31;;;;;;;680.20;513.67;;;4.20;99.90;;;;;;10326729;28;87552;-74
2020/12/18 03:10:05;;;;;;;435.17;198.57;;;4.10;99.90;;;;;;10306385;28;89835;-74
2020/12/18 03:15:11;;;;;;;478.30;221.53;;;3.90;99.90;;;;;;10288720;28;89116;-74
2020/12/18 03:20:31;;;;;;;375.43;102.40;;;3.80;99.90;;;;;;10295194;28;88734;-74
2020/12/18 03:25:52;;;;;;;307.90;121.00;;;3.80;99.90;;;;;;10294655;28;87413;-74
2020/12/18 03:31:04;;;;;;;596.40;406.47;;;3.80;99.90;;;;;;10310736;28;88953;-75
2020/12/18 03:36:06;;;;;;;748.97;530.23;;;3.80;99.90;;;;;;10290880;28;89121;-75
2020/12/18 03:41:10;;;;;;;848.13;699.97;;;3.70;99.90;;;;;;10301033;28;90460;-74
2020/12/18 03:46:16;;;;;;;936.87;795.20;;;3.70;99.90;;;;;;10271079;28;88710;-74
2020/12/18 03:51:36;;;;;;;900.97;795.47;;;3.70;99.90;;;;;;10289480;28;88700;-74
2020/12/18 03:56:38;;;;;;;542.70;360.40;;;3.60;99.90;;;;;;10292778;28;88882;-74
2020/12/18 04:02:07;;;;;;;664.07;400.73;;;3.70;99.90;;;;;;10283722;28;89868;-74
2020/12/18 04:07:13;;;;;;;883.33;725.93;;;3.80;99.90;;;;;;10273916;28;90033;-74
2020/12/18 04:12:16;;;;;;;801.07;690.67;;;3.80;99.90;;;;;;10292082;28;89064;-74
2020/12/18 04:17:25;;;;;;;986.13;799.83;;;3.80;99.90;;;;;;10290351;28;89992;-75
2020/12/18 04:22:34;;;;;;;970.07;792.40;;;3.80;99.90;;;;;;10287355;28;89702;-75
2020/12/18 04:27:52;;;;;;;949.53;799.20;;;3.80;99.90;;;;;;10275750;28;90757;-74
2020/12/18 04:32:55;;;;;;;932.07;760.60;;;3.90;99.90;;;;;;10269885;28;92280;-74
2020/12/18 04:37:57;;;;;;;709.57;570.27;;;4.00;99.90;;;;;;10291181;28;88538;-74
2020/12/18 04:43:19;;;;;;;680.90;558.03;;;4.00;99.90;;;;;;10290020;28;88878;-74
2020/12/18 04:48:25;;;;;;;352.90;196.03;;;3.90;99.90;;;;;;10271796;28;89607;-74
2020/12/18 04:53:28;;;;;;;178.10;96.07;;;3.90;99.90;;;;;;10266160;28;92862;-75
2020/12/18 04:58:41;;;;;;;160.53;88.13;;;3.80;99.90;;;;;;10297306;28;89840;-74
2020/12/18 05:03:45;;;;;;;248.10;139.40;;;4.00;99.90;;;;;;10287135;28;88738;-74
2020/12/18 05:08:50;;;;;;;301.07;164.43;;;4.00;99.90;;;;;;10289410;28;89465;-75
2020/12/18 05:13:55;;;;;;;353.00;198.87;;;4.00;99.90;;;;;;10289643;28;88677;-75
2020/12/18 05:19:03;;;;;;;419.30;272.53;;;4.00;99.90;;;;;;10283153;28;89173;-75
2020/12/18 05:24:32;;;;;;;372.43;207.17;;;4.00;99.90;;;;;;10196301;28;89679;-75
2020/12/18 05:29:36;;;;;;;377.93;176.77;;;4.10;99.90;;;;;;10198327;28;88618;-75
2020/12/18 05:35:07;;;;;;;236.43;120.50;;;4.00;99.90;;;;;;10079581;28;91581;-75
2020/12/18 05:40:18;;;;;;;692.37;562.10;;;3.80;99.90;;;;;;10064427;28;89327;-74
2020/12/18 05:45:40;;;;;;;828.90;737.80;;;3.70;99.90;;;;;;10081793;28;90338;-76
2020/12/18 05:51:04;;;;;;;521.27;364.90;;;3.60;99.90;;;;;;10080843;28;88584;-75
2020/12/18 05:56:28;;;;;;;847.83;710.10;;;3.40;99.90;;;;;;10057782;28;91429;-74
2020/12/18 06:01:31;;;;;;;880.70;781.47;;;3.30;99.90;;;;;;10129474;28;90044;-74
2020/12/18 06:06:53;;;;;;;796.50;624.77;;;3.30;99.90;;;;;;10156225;28;88679;-75
2020/12/18 06:12:15;;;;;;;903.50;750.43;;;3.30;99.90;;;;;;10222811;28;88955;-74
2020/12/18 06:17:28;;;;;;;935.33;794.43;;;3.30;99.90;;;;;;10257336;28;89120;-75
2020/12/18 06:22:34;;;;;;;801.60;646.17;;;3.40;99.90;;;;;;10246418;28;88221;-76
2020/12/18 06:28:11;;;;;;;881.53;736.23;;;3.20;99.90;;;;;;10074432;28;87538;-76
2020/12/18 06:33:51;;;;;;;406.17;255.27;;;3.00;99.90;;;;;;10067565;28;90549;-77
2020/12/18 06:39:21;;;;;;;516.80;342.00;;;2.90;99.90;;;;;;10069261;28;89940;-77
2020/12/18 06:44:40;;;;;;;651.90;501.67;;;2.90;99.90;;;;;;10059623;28;89924;-77
2020/12/18 06:50:16;;;;;;;724.43;644.10;;;2.90;99.90;;;;;;10074101;28;89145;-77
2020/12/18 06:55:41;;;;;;;761.30;670.30;;;3.10;99.90;;;;;;10081253;28;89183;-77
2020/12/18 07:01:01;;;;;;;803.97;670.60;;;3.20;99.90;;;;;;10160389;28;88869;-76
2020/12/18 07:06:05;;;;;;;902.03;768.53;;;3.10;99.90;;;;;;10253738;28;90227;-77
2020/12/18 07:11:10;;;;;;;883.73;790.20;;;3.00;99.90;;;;;;10248727;28;88924;-77
2020/12/18 07:16:12;;;;;;;931.77;801.13;;;2.90;99.90;;;;;;10249732;28;88477;-78
2020/12/18 07:21:16;;;;;;;894.30;798.00;;;3.00;99.90;;;;;;10252868;28;88910;-77
2020/12/18 07:26:22;;;;;;;929.27;798.53;;;3.20;99.90;;;;;;10250523;28;89061;-78
2020/12/18 07:31:25;;;;;;;1009.07;801.30;;;3.20;99.90;;;;;;10251108;28;90037;-79
2020/12/18 07:36:29;;;;;;;1066.93;801.27;;;3.30;99.90;;;;;;10274785;28;88868;-77
2020/12/18 07:41:32;;;;;;;1018.73;799.27;;;3.30;99.90;;;;;;10291958;28;88941;-76
2020/12/18 07:46:35;;;;;;;899.40;798.13;;;3.40;99.90;;;;;;10294333;28;88992;-78
2020/12/18 07:51:39;;;;;;;913.97;793.70;;;3.50;99.90;;;;;;10297354;28;88737;-78
2020/12/18 07:56:41;;;;;;;852.37;756.47;;;3.50;99.90;;;;;;10293711;28;89011;-77
2020/12/18 08:01:43;;;;;;;812.33;725.30;;;3.50;99.90;;;;;;10291207;28;88938;-78
2020/12/18 08:06:44;;;;;;;785.27;682.43;;;3.70;99.90;;;;;;10302603;28;88220;-78
2020/12/18 08:11:50;;;;;;;925.57;768.27;;;3.60;99.90;;;;;;10290731;28;88993;-77
2020/12/18 08:16:52;;;;;;;897.93;793.63;;;3.60;99.90;;;;;;10288942;28;90105;-78
2020/12/18 08:21:56;;;;;;;820.60;728.90;;;3.70;99.90;;;;;;10266962;28;90467;-76
2020/12/18 08:27:02;;;;;;;809.37;701.53;;;3.70;99.90;;;;;;10288058;28;88985;-76
2020/12/18 08:32:07;;;;;;;911.70;751.30;;;3.70;99.90;;;;;;10279870;28;89171;-76
2020/12/18 08:37:11;;;;;;;613.00;422.33;;;3.70;99.90;;;;;;10279403;28;89465;-75
2020/12/18 08:42:14;;;;;;;930.60;790.30;;;3.70;99.90;;;;;;10278853;28;88873;-76
2020/12/18 08:47:25;;;;;;;886.67;749.77;;;3.90;99.90;;;;;;10276431;28;88758;-76
2020/12/18 08:52:28;;;;;;;907.17;789.43;;;4.00;99.90;;;;;;10278511;28;88827;-76
2020/12/18 08:57:31;;;;;;;936.67;778.77;;;4.00;99.90;;;;;;10276540;28;88187;-76
2020/12/18 09:02:35;;;;;;;911.50;792.17;;;4.00;99.90;;;;;;10280627;28;89095;-77
2020/12/18 09:07:38;;;;;;;838.73;749.20;;;4.20;99.90;;;;;;10281341;28;88938;-76
2020/12/18 09:12:43;;;;;;;547.93;376.23;;;4.20;99.90;;;;;;10273277;28;90273;-76
2020/12/18 09:17:45;;;;;;;896.60;799.47;;;4.30;99.90;;;;;;10262662;28;88985;-76
2020/12/18 09:22:55;;;;;;;804.63;700.30;;;4.40;99.90;;;;;;10264149;28;90736;-75
2020/12/18 09:27:58;;;;;;;472.80;345.80;;;4.50;99.90;;;;;;10289179;28;89166;-75
2020/12/18 09:33:15;;;;;;;396.80;290.93;;;4.60;99.90;;;;;;10287614;28;89114;-76
2020/12/18 09:38:22;;;;;;;588.57;519.93;;;4.70;99.90;;;;;;10295549;28;88940;-75
2020/12/18 09:43:25;;;;;;;495.30;386.97;;;4.90;99.90;;;;;;10288935;28;89412;-77
2020/12/18 09:48:27;;;;;;;499.70;418.33;;;5.10;99.90;;;;;;10291976;28;88396;-77
2020/12/18 09:53:29;;;;;;;781.33;701.87;;;5.10;99.90;;;;;;10288382;28;88790;-76
2020/12/18 09:58:31;;;;;;;655.87;586.90;;;5.10;99.90;;;;;;10288955;28;89105;-77
2020/12/18 10:03:33;;;;;;;413.73;287.57;;;5.10;99.90;;;;;;10290482;28;89845;-76
2020/12/18 10:08:34;;;;;;;378.00;259.77;;;5.10;99.90;;;;;;10293282;28;90478;-75
2020/12/18 10:13:37;;;;;;;450.00;341.80;;;5.10;99.90;;;;;;10288605;28;89850;-77
2020/12/18 10:18:39;;;;;;;350.67;221.77;;;5.10;99.90;;;;;;10287493;28;88978;-76
2020/12/18 10:23:41;;;;;;;359.50;196.17;;;5.10;99.90;;;;;;10287698;28;89409;-76
2020/12/18 10:28:43;;;;;;;570.07;385.50;;;5.10;99.90;;;;;;10295762;28;90094;-76
2020/12/18 10:33:47;;;;;;;623.40;474.27;;;5.10;99.90;;;;;;10296029;28;88993;-76
2020/12/18 10:38:49;;;;;;;219.20;101.93;;;5.20;99.90;;;;;;10297411;28;88215;-76
2020/12/18 10:43:52;;;;;;;181.37;91.63;;;5.20;99.90;;;;;;10304722;28;88880;-76
2020/12/18 10:48:53;;;;;;;322.43;152.00;;;5.20;99.90;;;;;;10292254;28;89492;-76
2020/12/18 10:53:55;;;;;;;378.43;196.03;;;5.20;99.90;;;;;;10294973;28;91571;-75
2020/12/18 10:58:57;;;;;;;786.93;599.20;;;5.10;99.90;;;;;;10292499;28;89732;-77
2020/12/18 11:03:59;;;;;;;382.50;229.17;;;5.20;99.90;;;;;;10296890;28;89062;-76
2020/12/18 11:09:01;;;;;;;463.10;261.80;;;5.30;99.90;;;;;;10288718;28;90252;-76
2020/12/18 11:14:04;;;;;;;720.80;573.07;;;5.20;99.90;;;;;;10292762;28;90771;-76
2020/12/18 11:19:05;;;;;;;605.53;444.13;;;5.30;99.90;;;;;;10288588;28;89199;-76
2020/12/18 11:24:07;;;;;;;55.03;21.40;;;5.50;99.90;;;;;;10305884;28;88977;-76
2020/12/18 11:29:09;;;;;;;25.53;14.63;;;5.50;99.90;;;;;;10313163;28;88142;-76
2020/12/18 11:34:11;;;;;;;42.93;20.43;;;5.50;99.90;;;;;;10293602;28;89272;-76
2020/12/18 11:39:13;;;;;;;41.57;19.10;;;5.40;99.90;;;;;;10293884;28;89014;-76
2020/12/18 11:44:16;;;;;;;36.87;16.33;;;5.50;99.90;;;;;;10291389;28;90900;-76
2020/12/18 11:49:17;;;;;;;52.30;14.00;;;5.70;99.90;;;;;;10294762;28;88521;-74
2020/12/18 11:54:19;;;;;;;28.27;15.10;;;5.80;99.90;;;;;;10289499;28;89325;-76
2020/12/18 11:59:22;;;;;;;23.63;11.43;;;6.00;99.90;;;;;;10273694;28;89144;-77
2020/12/18 12:04:23;;;;;;;27.80;15.60;;;6.00;99.90;;;;;;10294411;28;88846;-75
2020/12/18 12:09:25;;;;;;;25.27;12.23;;;6.00;99.90;;;;;;10289885;28;89278;-76
2020/12/18 12:14:28;;;;;;;30.00;14.20;;;6.00;99.90;;;;;;10301704;28;89366;-76
2020/12/18 12:19:30;;;;;;;32.27;12.20;;;6.00;99.90;;;;;;10294840;28;89174;-76
2020/12/18 12:24:32;;;;;;;29.80;12.23;;;6.00;99.90;;;;;;10295792;28;89948;-78
2020/12/18 12:29:34;;;;;;;31.60;14.40;;;6.00;99.90;;;;;;10293300;28;88916;-77
2020/12/18 12:34:36;;;;;;;38.23;16.17;;;6.10;99.90;;;;;;10293081;28;90096;-76
2020/12/18 12:39:38;;;;;;;51.00;12.50;;;6.20;99.90;;;;;;10293794;28;88909;-77
2020/12/18 12:44:41;;;;;;;24.33;12.87;;;6.10;99.90;;;;;;10294256;28;89233;-76
2020/12/18 12:49:42;;;;;;;24.63;9.13;;;6.30;99.90;;;;;;10292062;28;88820;-77
2020/12/18 12:54:44;;;;;;;31.63;16.47;;;6.30;99.90;;;;;;10295620;28;91058;-77
2020/12/18 12:59:47;;;;;;;39.77;19.67;;;6.30;99.90;;;;;;10289296;28;89605;-77
2020/12/18 13:04:48;;;;;;;67.93;30.40;;;6.20;99.90;;;;;;10294873;28;88982;-76
2020/12/18 13:09:51;;;;;;;132.50;49.43;;;6.30;99.90;;;;;;10290641;28;88333;-76
2020/12/18 13:14:56;;;;;;;246.97;203.23;;;6.40;99.90;;;;;;10289180;28;90319;-76
2020/12/18 13:19:57;;;;;;;264.60;192.73;;;6.40;99.90;;;;;;10290792;28;91969;-77
2020/12/18 13:24:59;;;;;;;590.30;468.83;;;6.40;99.90;;;;;;10287631;28;93122;-77
2020/12/18 13:30:01;;;;;;;539.60;397.07;;;6.30;99.90;;;;;;10291739;28;88976;-76
2020/12/18 13:35:03;;;;;;;282.70;161.27;;;6.20;99.90;;;;;;10298141;28;89388;-78
2020/12/18 13:40:05;;;;;;;399.20;209.53;;;6.10;99.90;;;;;;10295377;28;88811;-77
2020/12/18 13:45:09;;;;;;;822.13;584.23;;;6.00;99.90;;;;;;10290493;28;90134;-77
2020/12/18 13:50:14;;;;;;;233.93;99.43;;;5.80;99.90;;;;;;10292530;28;89820;-76
2020/12/18 13:55:15;;;;;;;117.73;56.73;;;5.70;99.90;;;;;;10290138;28;88902;-76
2020/12/18 14:00:18;;;;;;;84.87;16.57;;;5.70;99.90;;;;;;10301400;28;89037;-77
2020/12/18 14:05:20;;;;;;;122.60;40.53;;;5.70;99.90;;;;;;10299537;28;89131;-77
2020/12/18 14:10:22;;;;;;;350.57;160.13;;;5.70;99.90;;;;;;10301487;28;89491;-75
2020/12/18 14:15:26;;;;;;;59.00;13.30;;;5.50;99.90;;;;;;10293987;28;90090;-74
2020/12/18 14:20:30;;;;;;;87.73;11.00;;;5.50;99.90;;;;;;10300478;28;89859;-75
2020/12/18 14:25:32;;;;;;;112.27;10.23;;;5.30;99.90;;;;;;10299131;28;88840;-75
2020/12/18 14:30:34;;;;;;;84.00;9.27;;;5.30;99.90;;;;;;10304382;28;90646;-75
2020/12/18 14:35:36;;;;;;;31.33;8.70;;;5.30;99.90;;;;;;10298450;28;89311;-75
2020/12/18 14:40:38;;;;;;;125.80;10.60;;;5.30;99.90;;;;;;10302659;28;89162;-77
2020/12/18 14:45:41;;;;;;;73.73;9.40;;;5.20;99.90;;;;;;10296045;28;89443;-75
2020/12/18 14:50:46;;;;;;;43.40;9.63;;;5.20;99.90;;;;;;10298916;28;87903;-75
2020/12/18 14:55:48;;;;;;;62.17;10.37;;;5.20;99.90;;;;;;10297328;28;88950;-76
2020/12/18 15:00:50;;;;;;;40.93;10.33;;;5.20;99.90;;;;;;10296119;28;88982;-76
2020/12/18 15:05:52;;;;;;;25.83;8.97;;;5.20;99.90;;;;;;10296750;28;90141;-74
2020/12/18 15:10:54;;;;;;;23.60;7.67;;;5.20;99.90;;;;;;10296318;28;88921;-75
2020/12/18 15:15:56;;;;;;;37.90;9.57;;;5.10;99.90;;;;;;10304541;28;88832;-75
2020/12/18 15:20:58;;;;;;;32.20;9.53;;;5.10;99.90;;;;;;10294017;28;89413;-75
2020/12/18 15:25:59;;;;;;;39.87;10.87;;;5.20;99.90;;;;;;10298975;28;88603;-77
2020/12/18 15:31:02;;;;;;;85.70;11.87;;;5.10;99.90;;;;;;10295345;28;89003;-75
2020/12/18 15:36:04;;;;;;;73.07;10.37;;;5.20;99.90;;;;;;10294343;28;88569;-76
2020/12/18 15:41:05;;;;;;;38.17;10.33;;;5.30;99.90;;;;;;10289137;28;87966;-76
2020/12/18 15:46:12;;;;;;;366.27;274.47;;;5.30;99.90;;;;;;10295500;28;90410;-74
2020/12/18 15:51:15;;;;;;;29.27;10.80;;;5.20;99.90;;;;;;10291429;28;88948;-75
2020/12/18 15:56:19;;;;;;;34.17;13.63;;;5.20;99.90;;;;;;10292953;28;90068;-75
2020/12/18 16:01:22;;;;;;;274.80;171.57;;;5.10;99.90;;;;;;10294945;28;88823;-77
2020/12/18 16:06:24;;;;;;;42.63;19.53;;;5.20;99.90;;;;;;10297623;28;88869;-76
2020/12/18 16:11:26;;;;;;;41.33;18.13;;;5.20;99.90;;;;;;10290006;28;88979;-76
2020/12/18 16:16:28;;;;;;;31.23;9.53;;;5.10;99.90;;;;;;10296722;28;89028;-75
2020/12/18 16:21:30;;;;;;;27.73;9.80;;;5.10;99.90;;;;;;10293239;28;90116;-75
2020/12/18 16:26:32;;;;;;;27.20;9.33;;;5.10;99.90;;;;;;10294485;28;88991;-76
2020/12/18 16:31:34;;;;;;;27.33;9.37;;;5.00;99.90;;;;;;10295781;28;88793;-75
2020/12/18 16:36:36;;;;;;;31.50;10.00;;;5.00;99.90;;;;;;10301268;28;89100;-77
2020/12/18 16:41:38;;;;;;;24.73;9.03;;;5.00;99.90;;;;;;10321167;28;87657;-76
2020/12/18 16:46:41;;;;;;;26.80;8.97;;;5.00;99.90;;;;;;10291413;28;89833;-76
2020/12/18 16:51:42;;;;;;;30.43;11.53;;;5.00;99.90;;;;;;10291957;28;88896;-76
2020/12/18 16:56:44;;;;;;;33.57;16.37;;;5.00;99.90;;;;;;10290762;28;89066;-76
2020/12/18 17:01:47;;;;;;;151.67;73.23;;;4.90;99.90;;;;;;10291192;28;90021;-77
2020/12/18 17:06:49;;;;;;;583.60;418.00;;;4.90;99.90;;;;;;10291654;28;90323;-76
2020/12/18 17:11:55;;;;;;;697.20;539.97;;;4.80;99.90;;;;;;10289044;28;88919;-77
2020/12/18 17:17:01;;;;;;;894.93;693.30;;;4.80;99.90;;;;;;10288108;28;90067;-76
2020/12/18 17:22:06;;;;;;;94.00;32.13;;;4.70;99.90;;;;;;10289232;28;88389;-77
2020/12/18 17:27:08;;;;;;;519.73;333.97;;;4.70;99.90;;;;;;10290512;28;87850;-79
2020/12/18 17:32:13;;;;;;;151.33;77.17;;;4.70;99.90;;;;;;10293284;28;88740;-76
2020/12/18 17:37:15;;;;;;;233.27;111.17;;;4.70;99.90;;;;;;10288914;28;90094;-76
2020/12/18 17:42:17;;;;;;;107.63;56.03;;;4.70;99.90;;;;;;10288593;28;89825;-77
2020/12/18 17:47:20;;;;;;;73.37;25.07;;;4.70;99.90;;;;;;10291403;28;90370;-77
2020/12/18 17:52:22;;;;;;;54.40;30.60;;;4.50;99.90;;;;;;10291773;28;88902;-77
2020/12/18 17:57:24;;;;;;;724.80;588.77;;;4.50;99.90;;;;;;10269033;28;90445;-76
2020/12/18 18:02:26;;;;;;;30.87;9.33;;;4.50;99.90;;;;;;10287192;28;90771;-76
2020/12/18 18:07:28;;;;;;;20.70;8.43;;;4.50;99.90;;;;;;10293458;28;89357;-76
2020/12/18 18:12:30;;;;;;;52.00;21.33;;;4.50;99.90;;;;;;10290132;28;89135;-76
2020/12/18 18:17:36;;;;;;;53.60;30.57;;;4.50;99.90;;;;;;10286637;28;89089;-77
2020/12/18 18:22:37;;;;;;;525.07;386.40;;;4.60;99.90;;;;;;10289058;28;89216;-77
2020/12/18 18:27:39;;;;;;;375.83;276.53;;;4.60;99.90;;;;;;10286612;28;89962;-76
2020/12/18 18:32:42;;;;;;;248.33;161.83;;;4.60;99.90;;;;;;10287951;28;89210;-77
2020/12/18 18:37:44;;;;;;;572.93;491.27;;;4.50;99.90;;;;;;10287951;28;88891;-77
2020/12/18 18:42:46;;;;;;;323.97;228.13;;;4.40;99.90;;;;;;10288874;28;89963;-77
2020/12/18 18:47:48;;;;;;;667.67;459.93;;;4.30;99.90;;;;;;10318239;28;89136;-77
2020/12/18 18:52:51;;;;;;;804.33;574.33;;;4.30;99.90;;;;;;10298988;28;88853;-76
2020/12/18 18:57:55;;;;;;;392.47;233.93;;;4.30;99.90;;;;;;10291880;28;88849;-76
2020/12/18 19:03:03;;;;;;;98.23;48.60;;;4.40;99.90;;;;;;10293707;28;88484;-77
2020/12/18 19:08:07;;;;;;;128.30;60.40;;;4.40;99.90;;;;;;10294043;28;90438;-77
2020/12/18 19:13:09;;;;;;;98.10;28.23;;;4.50;99.90;;;;;;10292622;28;89042;-77
2020/12/18 19:18:11;;;;;;;81.40;34.33;;;4.50;99.90;;;;;;10292659;28;89829;-78
2020/12/18 19:23:13;;;;;;;58.23;26.70;;;4.40;99.90;;;;;;10295071;28;89849;-76
2020/12/18 19:28:15;;;;;;;56.83;32.23;;;4.20;99.90;;;;;;10295108;28;88932;-76
2020/12/18 19:33:17;;;;;;;52.80;28.13;;;4.10;99.90;;;;;;10293697;28;90016;-75
2020/12/18 19:38:19;;;;;;;72.07;35.80;;;4.00;99.90;;;;;;10292953;28;89179;-76
2020/12/18 19:43:22;;;;;;;57.63;33.63;;;3.90;99.90;;;;;;10293748;28;88994;-75
2020/12/18 19:48:25;;;;;;;70.13;37.43;;;3.90;99.90;;;;;;10290859;28;89662;-77
2020/12/18 19:53:26;;;;;;;100.57;48.40;;;4.00;99.90;;;;;;10293777;28;88519;-77
2020/12/18 19:58:28;;;;;;;138.50;64.97;;;3.80;99.90;;;;;;10294552;28;88812;-76
2020/12/18 20:03:31;;;;;;;474.80;294.70;;;3.60;99.90;;;;;;10290695;28;88961;-76
2020/12/18 20:08:33;;;;;;;704.63;551.80;;;3.50;99.90;;;;;;10290479;28;90144;-76
2020/12/18 20:13:34;;;;;;;778.27;693.37;;;3.40;99.90;;;;;;10289844;28;89094;-76
2020/12/18 20:18:39;;;;;;;887.93;721.53;;;3.40;99.90;;;;;;10289979;28;89921;-77
2020/12/18 20:23:41;;;;;;;948.07;790.97;;;3.50;99.90;;;;;;10287782;28;88866;-74
2020/12/18 20:28:43;;;;;;;956.20;801.83;;;3.60;99.90;;;;;;10288316;28;89222;-76
2020/12/18 20:33:46;;;;;;;948.43;733.83;;;3.60;99.90;;;;;;10295667;28;88698;-75
2020/12/18 20:38:48;;;;;;;520.47;321.27;;;3.60;99.90;;;;;;10290108;28;89962;-76
2020/12/18 20:43:50;;;;;;;630.97;447.77;;;3.50;99.90;;;;;;10288739;28;88637;-75
2020/12/18 20:48:52;;;;;;;461.00;271.57;;;3.60;99.90;;;;;;10284080;28;89467;-76
2020/12/18 20:53:55;;;;;;;692.53;533.17;;;3.50;99.90;;;;;;10289083;28;88929;-75
2020/12/18 20:58:57;;;;;;;658.53;487.47;;;3.50;99.90;;;;;;10288134;28;89856;-76
2020/12/18 21:03:59;;;;;;;470.47;306.83;;;3.50;99.90;;;;;;10289522;28;90598;-73
2020/12/18 21:09:01;;;;;;;631.80;476.87;;;3.50;99.90;;;;;;10290013;28;89612;-76
2020/12/18 21:14:03;;;;;;;630.37;427.43;;;3.40;99.90;;;;;;10289167;28;88894;-83
2020/12/18 21:19:05;;;;;;;811.70;694.37;;;3.50;99.90;;;;;;10291582;28;89015;-75
2020/12/18 21:24:07;;;;;;;932.03;805.63;;;3.40;99.90;;;;;;10288284;28;89575;-75
2020/12/18 21:29:09;;;;;;;885.37;755.93;;;3.30;99.90;;;;;;10290487;28;90525;-74
2020/12/18 21:34:12;;;;;;;964.27;792.17;;;3.30;99.90;;;;;;10288456;28;88333;-74
2020/12/18 21:39:14;;;;;;;798.73;637.93;;;3.20;99.90;;;;;;10285533;28;89169;-74
2020/12/18 21:44:15;;;;;;;429.13;236.73;;;3.20;99.90;;;;;;10286706;28;88760;-75
2020/12/18 21:49:18;;;;;;;545.00;351.33;;;3.10;99.90;;;;;;10287098;28;90093;-74
2020/12/18 21:54:22;;;;;;;479.93;283.70;;;3.20;99.90;;;;;;10285234;28;88808;-74
2020/12/18 21:59:24;;;;;;;867.67;688.50;;;3.10;99.90;;;;;;10283798;28;89452;-75
2020/12/18 22:04:26;;;;;;;966.53;793.30;;;3.20;99.90;;;;;;10284883;28;89264;-75
2020/12/18 22:09:28;;;;;;;959.83;770.00;;;3.30;99.90;;;;;;10284722;28;88904;-76
2020/12/18 22:14:29;;;;;;;742.03;556.83;;;3.30;99.90;;;;;;10281066;28;89159;-75
2020/12/18 22:19:32;;;;;;;713.10;476.47;;;3.30;99.90;;;;;;10278929;28;90892;-73
2020/12/18 22:24:34;;;;;;;945.07;763.90;;;3.30;99.90;;;;;;10291465;28;88545;-74
2020/12/18 22:29:36;;;;;;;779.67;601.30;;;3.20;99.90;;;;;;10291849;28;88890;-74
2020/12/18 22:34:38;;;;;;;429.10;219.77;;;3.30;99.90;;;;;;10287267;28;89091;-73
2020/12/18 22:39:40;;;;;;;253.07;132.13;;;3.30;99.90;;;;;;10286626;28;90023;-73
2020/12/18 22:44:42;;;;;;;916.73;773.10;;;3.20;99.90;;;;;;10284860;28;88855;-75
2020/12/18 22:49:47;;;;;;;738.27;630.20;;;3.20;99.90;;;;;;10289433;28;89523;-74
2020/12/18 22:54:48;;;;;;;805.23;676.53;;;3.20;99.90;;;;;;10289207;28;88795;-74
2020/12/18 22:59:50;;;;;;;571.77;375.30;;;3.20;99.90;;;;;;10294940;28;88952;-74
2020/12/18 23:04:53;;;;;;;460.20;292.10;;;3.10;99.90;;;;;;10301974;28;88856;-75
2020/12/18 23:09:54;;;;;;;161.43;80.57;;;3.00;99.90;;;;;;10279097;28;88596;-74
2020/12/18 23:14:56;;;;;;;164.47;64.43;;;3.00;99.90;;;;;;10288335;28;87341;-74
2020/12/18 23:19:58;;;;;;;471.77;339.23;;;3.00;99.90;;;;;;10285854;28;89065;-74
2020/12/18 23:25:00;;;;;;;205.30;96.50;;;3.00;99.90;;;;;;10278630;28;88804;-74
2020/12/18 23:30:02;;;;;;;414.83;262.80;;;2.80;99.90;;;;;;10278777;28;89964;-74
2020/12/18 23:35:05;;;;;;;83.27;43.27;;;2.70;99.90;;;;;;10287391;28;89989;-74
2020/12/18 23:40:07;;;;;;;44.17;27.77;;;2.50;99.90;;;;;;10285416;28;88815;-74
2020/12/18 23:45:10;;;;;;;691.97;506.27;;;2.40;99.90;;;;;;10292175;28;89804;-75
2020/12/18 23:50:13;;;;;;;764.27;587.07;;;2.40;99.90;;;;;;10287172;28;89202;-74
2020/12/18 23:55:14;;;;;;;695.63;507.47;;;2.40;99.90;;;;;;10293423;28;88859;-74
